Time;durP1;ratioP1;P1;durP2;ratioP2;P2;SDS_P1;SDS_P2;PMS_P1;PMS_P2;Temp;Humidity;BMP_temperature;BMP_pressure;BME280_temperature;BME280_humidity;BME280_pressure;Samples;Min_cycle;Max_cycle;Signal;HPM_P1;HPM_P2
2023/10/05 00:01:13;;;;;;;;;;;11.10;99.90;;;;;;5077493;28;20003;-61
2023/10/05 00:03:43;;;;;;;;;;;11.00;99.90;;;;;;5077460;28;20357;-62
2023/10/05 00:09:11;;;;;;;;;;;10.80;99.90;;;;;;5064115;28;19919;-61
2023/10/05 00:11:37;;;;;;;;;;;10.70;99.90;;;;;;5077357;28;19919;-61
2023/10/05 00:14:06;;;;;;;;;;;10.70;99.90;;;;;;5076946;28;19908;-62
2023/10/05 00:16:37;;;;;;;;;;;10.70;99.90;;;;;;5077054;28;19986;-61
2023/10/05 00:19:10;;;;;;;;;;;10.70;99.90;;;;;;5077053;28;19912;-61
2023/10/05 00:21:36;;;;;;;;;;;10.70;99.90;;;;;;5076974;28;19915;-61
2023/10/05 00:24:03;;;;;;;;;;;10.60;99.90;;;;;;5076907;28;19909;-61
2023/10/05 00:26:35;;;;;;;;;;;10.60;99.90;;;;;;5076998;28;19908;-61
2023/10/05 00:29:07;;;;;;;;;;;10.60;99.90;;;;;;5076930;28;19935;-61
2023/10/05 00:31:38;;;;;;;;;;;10.70;99.90;;;;;;5076774;28;19999;-62
2023/10/05 00:34:21;;;;;;;;;;;10.70;99.90;;;;;;5076904;28;19909;-61
2023/10/05 00:36:50;;;;;;;;;;;10.60;99.90;;;;;;5058904;28;19930;-61
2023/10/05 00:39:19;;;;;;;;;;;10.60;99.90;;;;;;5076662;28;19924;-62
2023/10/05 00:41:45;;;;;;;;;;;10.70;99.90;;;;;;5075940;28;19908;-61
2023/10/05 00:44:12;;;;;;;;;;;10.70;99.90;;;;;;5076576;28;20251;-61
2023/10/05 00:46:39;;;;;;;;;;;10.70;99.90;;;;;;5076590;28;19942;-61
2023/10/05 00:49:17;;;;;;;;;;;10.60;99.90;;;;;;5076819;28;19908;-61
2023/10/05 00:51:46;;;;;;;;;;;10.60;99.90;;;;;;5075275;28;19915;-61
2023/10/05 00:54:18;;;;;;;;;;;10.50;99.90;;;;;;5075004;28;19962;-61
2023/10/05 00:56:46;;;;;;;;;;;10.50;99.90;;;;;;5076461;28;19908;-61
2023/10/05 00:59:20;;;;;;;;;;;10.50;99.90;;;;;;5065252;28;19913;-61
2023/10/05 01:02:14;;;;;;;;;;;10.50;99.90;;;;;;5056432;28;19909;-61
2023/10/05 01:04:53;;;;;;;;;;;10.50;99.90;;;;;;5038312;28;19962;-61
2023/10/05 01:09:57;;;;;;;;;;;10.40;99.90;;;;;;5038233;28;19920;-62
2023/10/05 01:14:56;;;;;;;;;;;10.30;99.90;;;;;;5055953;28;19954;-62
2023/10/05 01:17:30;;;;;;;;;;;10.20;99.90;;;;;;5056024;28;19909;-61
2023/10/05 01:19:58;;;;;;;;;;;10.10;99.90;;;;;;5038148;28;19963;-61
2023/10/05 01:22:33;;;;;;;;;;;10.10;99.90;;;;;;5038125;28;20355;-61
2023/10/05 01:25:00;;;;;;;;;;;10.10;99.90;;;;;;5038174;28;19908;-61
2023/10/05 01:27:29;;;;;;;;;;;10.30;99.90;;;;;;5038125;28;19909;-61
2023/10/05 01:29:56;;;;;;;;;;;10.10;99.90;;;;;;5055898;28;19920;-61
2023/10/05 01:32:22;;;;;;;;;;;10.00;99.90;;;;;;5055881;28;19909;-62
2023/10/05 01:34:50;;;;;;;;;;;10.00;99.90;;;;;;5055827;28;19975;-61
2023/10/05 01:37:23;;;;;;;;;;;9.90;99.90;;;;;;5055892;28;20366;-62
2023/10/05 01:39:52;;;;;;;;;;;9.90;99.90;;;;;;5038054;28;19935;-61
2023/10/05 01:42:18;;;;;;;;;;;9.80;99.90;;;;;;5055487;28;19958;-61
2023/10/05 01:44:48;;;;;;;;;;;9.80;99.90;;;;;;5037870;28;20428;-61
2023/10/05 01:47:15;;;;;;;;;;;9.90;99.90;;;;;;5055694;28;19908;-62
2023/10/05 01:49:41;;;;;;;;;;;9.90;99.90;;;;;;5055747;28;19959;-61
2023/10/05 01:52:09;;;;;;;;;;;10.00;99.90;;;;;;5055810;28;20381;-61
2023/10/05 01:54:36;;;;;;;;;;;10.10;99.90;;;;;;5059425;28;20273;-62
2023/10/05 01:57:06;;;;;;;;;;;9.90;99.90;;;;;;5041779;28;20383;-62
2023/10/05 01:59:34;;;;;;;;;;;9.80;99.90;;;;;;5055541;28;20266;-62
2023/10/05 02:02:00;;;;;;;;;;;9.80;99.90;;;;;;5078506;28;19912;-62
2023/10/05 02:04:27;;;;;;;;;;;9.70;99.90;;;;;;5079788;28;19908;-62
2023/10/05 02:06:53;;;;;;;;;;;9.70;99.90;;;;;;5079588;28;20272;-61
2023/10/05 02:09:20;;;;;;;;;;;9.70;99.90;;;;;;5078237;28;19912;-61
2023/10/05 02:11:47;;;;;;;;;;;9.80;99.90;;;;;;5061517;28;19909;-62
2023/10/05 02:14:15;;;;;;;;;;;9.70;99.90;;;;;;5077931;28;19955;-61
2023/10/05 02:16:42;;;;;;;;;;;9.80;99.90;;;;;;5079537;28;19919;-61
2023/10/05 02:19:08;;;;;;;;;;;9.80;99.90;;;;;;5061397;28;19930;-62
2023/10/05 02:21:37;;;;;;;;;;;9.80;99.90;;;;;;5079407;28;19915;-61
2023/10/05 02:24:29;;;;;;;;;;;9.80;99.90;;;;;;5061294;28;20005;-61
2023/10/05 02:27:32;;;;;;;;;;;9.80;99.90;;;;;;5079001;28;19952;-62
2023/10/05 02:29:40;;;;;;;;;;;10.00;99.90;;;;;;5070940;28;19912;-61
2023/10/05 02:32:10;;;;;;;;;;;10.00;99.90;;;;;;5079145;28;19908;-61
2023/10/05 02:34:45;;;;;;;;;;;9.80;99.90;;;;;;5079178;28;20306;-61
2023/10/05 02:37:11;;;;;;;;;;;9.90;99.90;;;;;;5078785;28;19909;-61
2023/10/05 02:39:37;;;;;;;;;;;9.80;99.90;;;;;;5061148;28;19955;-61
2023/10/05 02:42:21;;;;;;;;;;;9.90;99.90;;;;;;5061084;28;19961;-61
2023/10/05 02:44:47;;;;;;;;;;;9.90;99.90;;;;;;5060871;28;19934;-61
2023/10/05 02:47:15;;;;;;;;;;;10.00;99.90;;;;;;5077827;28;19916;-61
2023/10/05 02:49:44;;;;;;;;;;;10.10;99.90;;;;;;5077510;28;20479;-61
2023/10/05 02:52:13;;;;;;;;;;;10.20;99.90;;;;;;5077592;28;19990;-61
2023/10/05 02:54:40;;;;;;;;;;;10.10;99.90;;;;;;5078710;28;19911;-61
2023/10/05 02:57:14;;;;;;;;;;;10.00;99.90;;;;;;5078691;28;19915;-61
2023/10/05 02:59:40;;;;;;;;;;;10.00;99.90;;;;;;5045823;28;19967;-61
2023/10/05 03:02:07;;;;;;;;;;;10.00;99.90;;;;;;5058663;28;19913;-61
2023/10/05 03:07:25;;;;;;;;;;;10.00;99.90;;;;;;5040459;28;20362;-61
2023/10/05 03:09:52;;;;;;;;;;;10.10;99.90;;;;;;5040509;28;19959;-61
2023/10/05 03:12:26;;;;;;;;;;;10.10;99.90;;;;;;5040337;28;20011;-61
2023/10/05 03:14:56;;;;;;;;;;;10.10;99.90;;;;;;5040367;28;19913;-61
2023/10/05 03:17:26;;;;;;;;;;;10.10;99.90;;;;;;5040489;28;19916;-61
2023/10/05 03:19:52;;;;;;;;;;;10.10;99.90;;;;;;5058180;28;19912;-61
2023/10/05 03:22:23;;;;;;;;;;;10.10;99.90;;;;;;5040256;28;20320;-62
2023/10/05 03:24:50;;;;;;;;;;;10.00;99.90;;;;;;5040289;28;19908;-61
2023/10/05 03:27:17;;;;;;;;;;;10.00;99.90;;;;;;5058109;28;20015;-61
2023/10/05 03:29:46;;;;;;;;;;;10.00;99.90;;;;;;5040248;28;19909;-61
2023/10/05 03:32:14;;;;;;;;;;;10.00;99.90;;;;;;5056832;28;20004;-62
2023/10/05 03:34:52;;;;;;;;;;;10.00;99.90;;;;;;5040228;28;19909;-62
2023/10/05 03:37:18;;;;;;;;;;;10.00;99.90;;;;;;5040229;28;19909;-61
2023/10/05 03:42:29;;;;;;;;;;;10.10;99.90;;;;;;5039650;28;19909;-61
2023/10/05 03:45:04;;;;;;;;;;;10.10;99.90;;;;;;5039872;28;19915;-61
2023/10/05 03:47:31;;;;;;;;;;;10.10;99.90;;;;;;5039861;28;19995;-61
2023/10/05 03:49:58;;;;;;;;;;;10.20;99.90;;;;;;5039876;28;19909;-61
2023/10/05 03:52:29;;;;;;;;;;;10.20;99.90;;;;;;5039878;28;19913;-61
2023/10/05 03:55:01;;;;;;;;;;;10.30;99.90;;;;;;5039763;28;19954;-62
2023/10/05 03:57:31;;;;;;;;;;;10.30;99.90;;;;;;5039527;28;19956;-62
2023/10/05 03:59:59;;;;;;;;;;;10.20;99.90;;;;;;5056825;28;19931;-61
2023/10/05 04:02:28;;;;;;;;;;;10.00;99.90;;;;;;5076086;28;19916;-61
2023/10/05 04:04:54;;;;;;;;;;;9.90;99.90;;;;;;5059468;28;19912;-62
2023/10/05 04:07:21;;;;;;;;;;;9.80;99.90;;;;;;5077299;28;19919;-61
2023/10/05 04:09:47;;;;;;;;;;;9.70;99.90;;;;;;5077201;28;19909;-62
2023/10/05 04:12:13;;;;;;;;;;;9.70;99.90;;;;;;5077254;28;19908;-62
2023/10/05 04:14:39;;;;;;;;;;;9.70;99.90;;;;;;5076993;28;19913;-61
2023/10/05 04:17:11;;;;;;;;;;;9.80;99.90;;;;;;5076527;28;19909;-62
2023/10/05 04:19:37;;;;;;;;;;;9.80;99.90;;;;;;5076952;28;19962;-61
2023/10/05 04:22:02;;;;;;;;;;;9.80;99.90;;;;;;5077133;28;19908;-61
2023/10/05 04:24:32;;;;;;;;;;;9.70;99.90;;;;;;5077030;28;20008;-61
2023/10/05 04:26:58;;;;;;;;;;;9.80;99.90;;;;;;5076784;28;20320;-62
2023/10/05 04:29:24;;;;;;;;;;;9.80;99.90;;;;;;5076921;28;19912;-61
2023/10/05 04:31:51;;;;;;;;;;;9.80;99.90;;;;;;5076869;28;19908;-61
2023/10/05 04:34:21;;;;;;;;;;;9.70;99.90;;;;;;5076823;28;19955;-62
2023/10/05 04:36:48;;;;;;;;;;;9.80;99.90;;;;;;5076560;28;20262;-61
2023/10/05 04:39:21;;;;;;;;;;;9.70;99.90;;;;;;5076659;28;19908;-62
2023/10/05 04:41:50;;;;;;;;;;;9.70;99.90;;;;;;5076687;28;19943;-61
2023/10/05 04:44:16;;;;;;;;;;;9.70;99.90;;;;;;5076452;28;19915;-61
2023/10/05 04:46:49;;;;;;;;;;;9.70;99.90;;;;;;5076507;28;20015;-61
2023/10/05 04:49:16;;;;;;;;;;;9.80;99.90;;;;;;5076550;28;19909;-61
2023/10/05 04:51:43;;;;;;;;;;;9.80;99.90;;;;;;5076500;28;19909;-61
2023/10/05 04:54:17;;;;;;;;;;;9.70;99.90;;;;;;5076399;28;19913;-61
2023/10/05 04:56:43;;;;;;;;;;;9.70;99.90;;;;;;5076395;28;19908;-62
2023/10/05 05:07:06;;;;;;;;;;;9.50;99.90;;;;;;5056178;28;20118;-62
2023/10/05 05:09:35;;;;;;;;;;;9.50;99.90;;;;;;5056174;28;19916;-61
2023/10/05 05:12:09;;;;;;;;;;;9.50;99.90;;;;;;5055166;28;19909;-62
2023/10/05 05:14:42;;;;;;;;;;;9.50;99.90;;;;;;5055912;28;19959;-61
2023/10/05 05:17:11;;;;;;;;;;;9.70;99.90;;;;;;5056138;28;20305;-62
2023/10/05 05:19:39;;;;;;;;;;;9.60;99.90;;;;;;5055256;28;20366;-61
2023/10/05 05:22:05;;;;;;;;;;;9.60;99.90;;;;;;5056873;28;20032;-61
2023/10/05 05:24:32;;;;;;;;;;;9.60;99.90;;;;;;5054551;28;19956;-62
2023/10/05 05:27:00;;;;;;;;;;;9.80;99.90;;;;;;5055319;28;20362;-62
2023/10/05 05:29:32;;;;;;;;;;;10.00;99.90;;;;;;5054534;28;19909;-62
2023/10/05 05:32:11;;;;;;;;;;;10.10;99.90;;;;;;5055176;28;20335;-61
2023/10/05 05:34:44;;;;;;;;;;;10.30;99.90;;;;;;5054505;28;19915;-61
2023/10/05 05:37:28;;;;;;;;;;;10.40;99.90;;;;;;5055522;28;20294;-61
2023/10/05 05:40:12;;;;;;;;;;;10.20;99.90;;;;;;5055586;28;19916;-62
2023/10/05 05:42:39;;;;;;;;;;;10.30;99.90;;;;;;5055442;28;19919;-61
2023/10/05 05:45:15;;;;;;;;;;;10.30;99.90;;;;;;5055692;28;19916;-62
2023/10/05 05:47:42;;;;;;;;;;;10.40;99.90;;;;;;5055516;28;19913;-61
2023/10/05 05:50:09;;;;;;;;;;;10.60;99.90;;;;;;5054949;28;19916;-62
2023/10/05 05:52:35;;;;;;;;;;;11.00;99.90;;;;;;5052146;28;20255;-61
2023/10/05 05:55:09;;;;;;;;;;;11.20;99.90;;;;;;5054758;28;19909;-61
2023/10/05 05:57:35;;;;;;;;;;;11.40;99.90;;;;;;5054745;28;19992;-62
2023/10/05 06:00:10;;;;;;;;;;;11.50;99.90;;;;;;5072089;28;19932;-62
2023/10/05 06:02:40;;;;;;;;;;;11.60;99.90;;;;;;5074285;28;20329;-62
2023/10/05 06:05:10;;;;;;;;;;;11.70;99.90;;;;;;5075320;28;20366;-62
2023/10/05 06:07:40;;;;;;;;;;;11.90;99.90;;;;;;5075347;28;19912;-62
2023/10/05 06:10:12;;;;;;;;;;;12.10;99.90;;;;;;5075144;28;20277;-62
2023/10/05 06:12:39;;;;;;;;;;;12.30;99.90;;;;;;5075301;28;20365;-62
2023/10/05 06:15:05;;;;;;;;;;;12.50;99.90;;;;;;5075388;28;19915;-62
2023/10/05 06:17:32;;;;;;;;;;;12.60;99.90;;;;;;5075345;28;20268;-62
2023/10/05 06:19:58;;;;;;;;;;;12.70;99.90;;;;;;5075279;28;19999;-62
2023/10/05 06:22:25;;;;;;;;;;;12.90;99.90;;;;;;5075580;28;20361;-62
2023/10/05 06:24:51;;;;;;;;;;;13.00;99.90;;;;;;5075324;28;19909;-61
2023/10/05 06:27:17;;;;;;;;;;;13.20;99.90;;;;;;5075177;28;19930;-62
2023/10/05 06:29:43;;;;;;;;;;;13.10;99.90;;;;;;5075144;28;19915;-62
2023/10/05 06:32:08;;;;;;;;;;;13.60;99.90;;;;;;5073809;28;19912;-62
2023/10/05 06:34:37;;;;;;;;;;;14.00;99.90;;;;;;5075135;28;19908;-62
2023/10/05 06:37:03;;;;;;;;;;;14.40;99.90;;;;;;5075289;28;19959;-62
2023/10/05 06:39:30;;;;;;;;;;;14.80;99.90;;;;;;5062129;28;19913;-62
2023/10/05 06:41:57;;;;;;;;;;;15.20;99.70;;;;;;5058017;28;20366;-62
2023/10/05 06:44:28;;;;;;;;;;;15.80;98.70;;;;;;5046990;28;19905;-62
2023/10/05 06:46:54;;;;;;;;;;;15.70;96.80;;;;;;5058811;28;20362;-62
2023/10/05 06:49:22;;;;;;;;;;;16.00;97.00;;;;;;5058607;28;19979;-62
2023/10/05 06:51:48;;;;;;;;;;;16.50;96.60;;;;;;5058510;28;19991;-62
2023/10/05 06:54:14;;;;;;;;;;;16.80;94.90;;;;;;5058626;28;19909;-62
2023/10/05 06:56:41;;;;;;;;;;;16.90;94.90;;;;;;5058564;28;20274;-62
2023/10/05 06:59:07;;;;;;;;;;;17.00;93.80;;;;;;5068588;28;19912;-62
2023/10/05 07:01:34;;;;;;;;;;;17.10;93.40;;;;;;5060376;28;19916;-62
2023/10/05 07:04:00;;;;;;;;;;;17.40;92.30;;;;;;5048273;28;19915;-62
2023/10/05 07:06:29;;;;;;;;;;;17.30;91.40;;;;;;5050691;28;19909;-62
2023/10/05 07:08:56;;;;;;;;;;;17.30;91.40;;;;;;5048534;28;19919;-61
2023/10/05 07:11:22;;;;;;;;;;;17.30;91.20;;;;;;5057655;28;19908;-62
2023/10/05 07:13:48;;;;;;;;;;;17.10;91.20;;;;;;5057834;28;19915;-62
2023/10/05 07:16:15;;;;;;;;;;;16.70;91.30;;;;;;5058508;28;19908;-62
2023/10/05 07:18:41;;;;;;;;;;;16.80;91.70;;;;;;5058053;28;19912;-62
2023/10/05 07:21:09;;;;;;;;;;;16.00;93.90;;;;;;5058250;28;20574;-62
2023/10/05 07:23:36;;;;;;;;;;;16.20;93.50;;;;;;5057764;28;19920;-62
2023/10/05 07:26:03;;;;;;;;;;;16.40;93.20;;;;;;5046961;28;19915;-62
2023/10/05 07:28:29;;;;;;;;;;;16.30;93.30;;;;;;5048661;28;19909;-62
2023/10/05 07:30:59;;;;;;;;;;;16.30;93.70;;;;;;5054905;28;19909;-62
2023/10/05 07:33:25;;;;;;;;;;;16.40;93.80;;;;;;5057476;28;19908;-62
2023/10/05 07:35:53;;;;;;;;;;;16.70;93.10;;;;;;5053835;28;19908;-62
2023/10/05 07:38:20;;;;;;;;;;;16.70;93.00;;;;;;5057241;28;19912;-62
2023/10/05 07:40:47;;;;;;;;;;;16.60;93.70;;;;;;5057295;28;20354;-62
2023/10/05 07:43:13;;;;;;;;;;;16.90;93.00;;;;;;5057248;28;19909;-62
2023/10/05 07:45:39;;;;;;;;;;;17.20;92.90;;;;;;5057586;28;19968;-62
2023/10/05 07:48:06;;;;;;;;;;;16.90;92.50;;;;;;5057645;28;19951;-63
2023/10/05 07:50:32;;;;;;;;;;;17.60;91.20;;;;;;5056542;28;19908;-63
2023/10/05 07:52:58;;;;;;;;;;;17.90;91.00;;;;;;5057540;28;19912;-63
2023/10/05 07:55:24;;;;;;;;;;;18.30;90.20;;;;;;5057112;28;19911;-63
2023/10/05 07:57:51;;;;;;;;;;;18.30;90.90;;;;;;5057417;28;19966;-63
2023/10/05 08:00:20;;;;;;;;;;;18.60;89.40;;;;;;5057379;28;19908;-63
2023/10/05 08:02:46;;;;;;;;;;;19.20;88.30;;;;;;5057168;28;20350;-63
2023/10/05 08:05:12;;;;;;;;;;;19.10;85.90;;;;;;5057375;28;19999;-64
2023/10/05 08:07:38;;;;;;;;;;;19.30;83.80;;;;;;5057029;28;19923;-64
2023/10/05 08:10:13;;;;;;;;;;;18.90;83.20;;;;;;5057240;28;20282;-64
2023/10/05 08:12:39;;;;;;;;;;;18.90;84.00;;;;;;5056937;28;19913;-64
2023/10/05 08:15:05;;;;;;;;;;;18.80;85.10;;;;;;5057244;28;19916;-63
2023/10/05 08:17:33;;;;;;;;;;;18.50;86.40;;;;;;5056995;28;19912;-64
2023/10/05 08:19:59;;;;;;;;;;;18.60;85.40;;;;;;5056993;28;19912;-64
2023/10/05 08:22:24;;;;;;;;;;;18.70;85.00;;;;;;5057056;28;19908;-64
2023/10/05 08:24:53;;;;;;;;;;;18.50;86.20;;;;;;5055439;28;19905;-63
2023/10/05 08:27:20;;;;;;;;;;;18.40;86.10;;;;;;5056946;28;19920;-64
2023/10/05 08:29:45;;;;;;;;;;;18.40;87.10;;;;;;5056887;28;19909;-63
2023/10/05 08:32:16;;;;;;;;;;;18.20;86.80;;;;;;5056496;28;19909;-63
2023/10/05 08:34:44;;;;;;;;;;;18.30;86.80;;;;;;5056741;28;19913;-64
2023/10/05 08:37:11;;;;;;;;;;;18.10;88.20;;;;;;5056785;28;20003;-63
2023/10/05 08:39:37;;;;;;;;;;;18.20;88.70;;;;;;5056547;28;19916;-64
2023/10/05 08:42:06;;;;;;;;;;;18.30;86.90;;;;;;5056379;28;19912;-64
2023/10/05 08:44:38;;;;;;;;;;;18.40;86.50;;;;;;5056401;28;20469;-64
2023/10/05 08:47:08;;;;;;;;;;;18.40;87.70;;;;;;5056376;28;19970;-64
2023/10/05 08:49:34;;;;;;;;;;;18.70;90.00;;;;;;5056047;28;19916;-64
2023/10/05 08:52:08;;;;;;;;;;;19.00;86.50;;;;;;5056509;28;19912;-64
2023/10/05 08:54:34;;;;;;;;;;;19.30;84.90;;;;;;5055794;28;19912;-64
2023/10/05 08:57:09;;;;;;;;;;;19.20;84.80;;;;;;5056389;28;19913;-64
2023/10/05 08:59:39;;;;;;;;;;;19.20;83.10;;;;;;5058236;28;19948;-64
2023/10/05 09:02:08;;;;;;;;;;;19.30;85.20;;;;;;5075844;28;19908;-64
2023/10/05 09:04:43;;;;;;;;;;;20.00;85.50;;;;;;5075804;28;20003;-65
2023/10/05 09:07:25;;;;;;;;;;;20.50;82.10;;;;;;5076191;28;19912;-64
2023/10/05 09:09:54;;;;;;;;;;;20.70;79.40;;;;;;5075234;28;20320;-65
2023/10/05 09:12:36;;;;;;;;;;;21.50;78.10;;;;;;5075960;28;20011;-65
2023/10/05 09:15:05;;;;;;;;;;;21.60;73.80;;;;;;5076338;28;19958;-65
2023/10/05 09:17:34;;;;;;;;;;;21.80;75.80;;;;;;5075792;28;19912;-64
2023/10/05 09:20:21;;;;;;;;;;;21.60;71.00;;;;;;5075914;28;19916;-64
2023/10/05 09:22:48;;;;;;;;;;;22.20;69.30;;;;;;5060930;28;20273;-64
2023/10/05 09:25:15;;;;;;;;;;;22.70;67.40;;;;;;5035304;28;19909;-65
2023/10/05 09:27:50;;;;;;;;;;;23.40;67.30;;;;;;5035503;28;19909;-65
2023/10/05 09:30:20;;;;;;;;;;;23.20;60.70;;;;;;5035874;28;19999;-65
2023/10/05 09:32:46;;;;;;;;;;;24.20;60.80;;;;;;5035885;28;19909;-65
2023/10/05 09:35:38;;;;;;;;;;;24.70;56.70;;;;;;5035949;28;20389;-65
2023/10/05 09:38:07;;;;;;;;;;;24.50;54.20;;;;;;5033464;28;19913;-65
2023/10/05 09:40:33;;;;;;;;;;;25.10;55.70;;;;;;5035765;28;19916;-65
2023/10/05 09:43:05;;;;;;;;;;;25.50;53.80;;;;;;5035535;28;19909;-65
2023/10/05 09:45:31;;;;;;;;;;;25.80;52.50;;;;;;5035580;28;20382;-65
2023/10/05 09:47:58;;;;;;;;;;;25.40;51.90;;;;;;5035768;28;19994;-66
2023/10/05 09:50:26;;;;;;;;;;;25.10;52.90;;;;;;5048046;28;19909;-65
2023/10/05 09:52:53;;;;;;;;;;;24.80;53.60;;;;;;5055522;28;19905;-65
2023/10/05 09:55:19;;;;;;;;;;;25.30;51.60;;;;;;5055213;28;19924;-66
2023/10/05 09:57:53;;;;;;;;;;;25.40;51.20;;;;;;5055599;28;20251;-66
2023/10/05 10:03:04;;;;;;;;;;;25.50;51.90;;;;;;5035447;28;19909;-66
2023/10/05 10:05:33;;;;;;;;;;;25.90;51.90;;;;;;5035530;28;19913;-66
2023/10/05 10:08:08;;;;;;;;;;;26.50;49.40;;;;;;5035244;28;20405;-66
2023/10/05 10:10:36;;;;;;;;;;;26.90;47.20;;;;;;5035560;28;20263;-66
2023/10/05 10:13:10;;;;;;;;;;;26.80;45.40;;;;;;5039001;28;19911;-66
2023/10/05 10:15:45;;;;;;;;;;;27.30;48.20;;;;;;5041225;28;19909;-66
2023/10/05 10:18:14;;;;;;;;;;;27.20;44.20;;;;;;5059320;28;19913;-66
2023/10/05 10:20:45;;;;;;;;;;;26.40;44.70;;;;;;5058930;28;20362;-65
2023/10/05 10:23:35;;;;;;;;;;;26.30;45.30;;;;;;5058996;28;20298;-65
2023/10/05 10:26:05;;;;;;;;;;;26.30;45.70;;;;;;5059037;28;19982;-66
2023/10/05 10:28:43;;;;;;;;;;;25.80;46.30;;;;;;5059115;28;19912;-66
2023/10/05 10:31:14;;;;;;;;;;;24.90;48.70;;;;;;5058804;28;19915;-65
2023/10/05 10:33:40;;;;;;;;;;;25.20;49.80;;;;;;5059284;28;19923;-65
2023/10/05 10:36:19;;;;;;;;;;;25.50;48.80;;;;;;5058828;28;19916;-66
2023/10/05 10:38:51;;;;;;;;;;;25.50;49.50;;;;;;5058397;28;20301;-66
2023/10/05 10:41:18;;;;;;;;;;;26.10;45.80;;;;;;5058262;28;19967;-66
2023/10/05 10:43:48;;;;;;;;;;;26.60;47.80;;;;;;5058767;28;19908;-66
2023/10/05 10:46:30;;;;;;;;;;;27.00;44.20;;;;;;5058421;28;19912;-66
2023/10/05 10:49:00;;;;;;;;;;;26.90;43.60;;;;;;5058657;28;19958;-66
2023/10/05 10:51:27;;;;;;;;;;;26.90;44.20;;;;;;5058483;28;19909;-66
2023/10/05 10:53:57;;;;;;;;;;;27.00;44.00;;;;;;5058061;28;20278;-66
2023/10/05 10:56:28;;;;;;;;;;;27.10;43.90;;;;;;5038557;28;19916;-66
2023/10/05 10:59:08;;;;;;;;;;;27.30;42.20;;;;;;5053884;28;19912;-66
2023/10/05 11:01:41;;;;;;;;;;;27.40;43.80;;;;;;5040726;28;19913;-66
2023/10/05 11:04:26;;;;;;;;;;;27.50;42.10;;;;;;5038595;28;20007;-66
2023/10/05 11:06:56;;;;;;;;;;;27.40;41.70;;;;;;5037920;28;20313;-66
2023/10/05 11:09:30;;;;;;;;;;;27.60;40.90;;;;;;5039847;28;19924;-66
2023/10/05 11:12:05;;;;;;;;;;;27.50;41.30;;;;;;5049325;28;19909;-67
2023/10/05 11:14:32;;;;;;;;;;;27.60;44.70;;;;;;5056885;28;19915;-67
2023/10/05 11:17:03;;;;;;;;;;;28.30;41.10;;;;;;5056827;28;19951;-67
2023/10/05 11:19:39;;;;;;;;;;;28.70;39.20;;;;;;5057116;28;19913;-67
2023/10/05 11:22:07;;;;;;;;;;;29.20;39.60;;;;;;5056701;28;19908;-67
2023/10/05 11:24:39;;;;;;;;;;;29.00;37.30;;;;;;5056370;28;19908;-67
2023/10/05 11:27:14;;;;;;;;;;;29.10;36.40;;;;;;5056994;28;19908;-67
2023/10/05 11:29:43;;;;;;;;;;;28.80;36.20;;;;;;5056672;28;19919;-67
2023/10/05 11:32:19;;;;;;;;;;;28.20;38.30;;;;;;5056867;28;19908;-67
2023/10/05 11:34:46;;;;;;;;;;;28.20;38.60;;;;;;5056713;28;19917;-66
2023/10/05 11:37:16;;;;;;;;;;;28.00;38.30;;;;;;5056784;28;19909;-66
2023/10/05 11:39:46;;;;;;;;;;;27.40;38.40;;;;;;5056503;28;20265;-66
2023/10/05 11:42:12;;;;;;;;;;;26.80;39.10;;;;;;5056649;28;19909;-66
2023/10/05 11:44:44;;;;;;;;;;;26.30;40.60;;;;;;5056605;28;20286;-66
2023/10/05 11:47:19;;;;;;;;;;;26.10;40.90;;;;;;5056445;28;19994;-66
2023/10/05 11:49:46;;;;;;;;;;;26.20;42.60;;;;;;5056744;28;19909;-66
2023/10/05 11:52:15;;;;;;;;;;;26.10;43.10;;;;;;5056667;28;19909;-66
2023/10/05 11:54:42;;;;;;;;;;;25.80;42.70;;;;;;5056348;28;19909;-66
2023/10/05 11:57:08;;;;;;;;;;;25.60;42.20;;;;;;5056517;28;19956;-66
2023/10/05 11:59:35;;;;;;;;;;;25.40;42.10;;;;;;5056346;28;19931;-66
2023/10/05 12:02:05;;;;;;;;;;;25.20;42.80;;;;;;5055847;28;20297;-66
2023/10/05 12:04:31;;;;;;;;;;;25.10;43.20;;;;;;5054401;28;19955;-66
2023/10/05 12:06:59;;;;;;;;;;;24.90;44.50;;;;;;5005461;28;1450914;-66
2023/10/05 12:09:34;;;;;;;;;;;24.70;43.20;;;;;;5057108;28;19909;-66
2023/10/05 12:12:02;;;;;;;;;;;24.50;44.20;;;;;;5056456;28;19917;-66
2023/10/05 12:14:29;;;;;;;;;;;24.10;44.60;;;;;;5056802;28;19909;-66
2023/10/05 12:16:56;;;;;;;;;;;23.70;46.60;;;;;;5057201;28;19912;-66
2023/10/05 12:19:28;;;;;;;;;;;23.60;46.20;;;;;;5056823;28;19948;-66
2023/10/05 12:21:55;;;;;;;;;;;23.50;46.20;;;;;;5056900;28;19932;-66
2023/10/05 12:24:21;;;;;;;;;;;23.50;47.70;;;;;;5056939;28;19912;-66
2023/10/05 12:26:47;;;;;;;;;;;23.60;49.40;;;;;;5056593;28;19995;-66
2023/10/05 12:29:13;;;;;;;;;;;23.60;46.90;;;;;;5056951;28;19963;-66
2023/10/05 12:31:39;;;;;;;;;;;23.60;47.10;;;;;;5056802;28;19954;-66
2023/10/05 12:34:09;;;;;;;;;;;23.50;46.70;;;;;;5056578;28;20004;-66
2023/10/05 12:36:35;;;;;;;;;;;23.30;46.90;;;;;;5056155;28;19916;-66
2023/10/05 12:39:01;;;;;;;;;;;23.30;47.20;;;;;;5056598;28;19958;-66
2023/10/05 12:41:36;;;;;;;;;;;23.20;48.50;;;;;;5056320;28;20354;-66
2023/10/05 12:44:02;;;;;;;;;;;23.10;48.90;;;;;;5056709;28;19983;-66
2023/10/05 12:46:33;;;;;;;;;;;23.00;48.60;;;;;;5056424;28;19908;-66
2023/10/05 12:49:07;;;;;;;;;;;22.90;49.20;;;;;;5056407;28;20400;-66
2023/10/05 12:51:36;;;;;;;;;;;23.00;49.40;;;;;;5056049;28;19908;-66
2023/10/05 12:54:08;;;;;;;;;;;23.00;50.00;;;;;;5056335;28;19904;-66
2023/10/05 12:56:54;;;;;;;;;;;23.30;49.80;;;;;;5056609;28;20003;-66
2023/10/05 12:59:20;;;;;;;;;;;23.20;49.90;;;;;;5055647;28;19916;-66
2023/10/05 13:01:46;;;;;;;;;;;23.30;50.00;;;;;;5056193;28;19952;-66
2023/10/05 13:04:16;;;;;;;;;;;23.50;49.30;;;;;;5055782;28;19909;-66
2023/10/05 13:06:46;;;;;;;;;;;23.60;49.50;;;;;;5056290;28;20357;-65
2023/10/05 13:09:13;;;;;;;;;;;23.60;48.90;;;;;;5055882;28;19916;-66
2023/10/05 13:11:45;;;;;;;;;;;23.70;46.70;;;;;;5056142;28;19991;-66
2023/10/05 13:14:14;;;;;;;;;;;23.80;48.10;;;;;;5055549;28;19916;-65
2023/10/05 13:16:40;;;;;;;;;;;24.10;46.20;;;;;;5055963;28;20152;-66
2023/10/05 13:19:09;;;;;;;;;;;24.50;44.60;;;;;;5055981;28;19920;-66
2023/10/05 13:21:36;;;;;;;;;;;25.00;43.60;;;;;;5055663;28;20293;-66
2023/10/05 13:24:06;;;;;;;;;;;25.10;44.10;;;;;;5056012;28;19955;-66
2023/10/05 13:26:32;;;;;;;;;;;25.40;42.70;;;;;;5055926;28;20003;-65
2023/10/05 13:29:04;;;;;;;;;;;25.70;43.00;;;;;;5055943;28;19966;-65
2023/10/05 13:31:32;;;;;;;;;;;25.70;42.90;;;;;;5055945;28;19965;-65
2023/10/05 13:33:59;;;;;;;;;;;25.80;40.50;;;;;;5055856;28;19954;-65
2023/10/05 13:36:26;;;;;;;;;;;25.70;43.90;;;;;;5055908;28;19905;-65
2023/10/05 13:38:54;;;;;;;;;;;25.40;41.80;;;;;;5055592;28;19912;-66
2023/10/05 13:41:20;;;;;;;;;;;25.50;41.90;;;;;;5055599;28;19920;-66
2023/10/05 13:43:49;;;;;;;;;;;25.70;40.10;;;;;;5055677;28;19908;-65
2023/10/05 13:46:35;;;;;;;;;;;25.80;39.70;;;;;;5055601;28;19909;-65
2023/10/05 13:49:02;;;;;;;;;;;25.50;41.00;;;;;;5054812;28;19912;-66
2023/10/05 13:51:34;;;;;;;;;;;25.40;41.20;;;;;;5055668;28;19931;-65
2023/10/05 13:54:06;;;;;;;;;;;25.50;41.30;;;;;;5055720;28;19916;-65
2023/10/05 13:56:32;;;;;;;;;;;25.50;42.60;;;;;;5055292;28;19915;-65
2023/10/05 13:59:01;;;;;;;;;;;25.50;42.70;;;;;;5064413;28;19930;-66
2023/10/05 14:01:42;;;;;;;;;;;25.50;40.30;;;;;;5075594;28;19915;-65
2023/10/05 14:04:09;;;;;;;;;;;25.50;40.20;;;;;;5075517;28;19915;-65
2023/10/05 14:06:36;;;;;;;;;;;25.60;44.10;;;;;;5075512;28;19912;-65
2023/10/05 14:09:05;;;;;;;;;;;25.60;40.60;;;;;;5075383;28;20369;-65
2023/10/05 14:11:38;;;;;;;;;;;25.60;39.80;;;;;;5075438;28;19908;-66
2023/10/05 14:14:07;;;;;;;;;;;25.30;39.30;;;;;;5075436;28;19909;-66
2023/10/05 14:16:44;;;;;;;;;;;24.90;42.30;;;;;;5075387;28;19999;-65
2023/10/05 14:19:10;;;;;;;;;;;24.70;42.70;;;;;;5075495;28;19912;-65
2023/10/05 14:21:37;;;;;;;;;;;24.50;41.80;;;;;;5075432;28;19904;-65
2023/10/05 14:24:03;;;;;;;;;;;24.40;43.30;;;;;;5075088;28;19909;-65
2023/10/05 14:26:30;;;;;;;;;;;24.30;43.30;;;;;;5075468;28;19915;-65
2023/10/05 14:28:55;;;;;;;;;;;24.10;45.60;;;;;;5075279;28;20274;-65
2023/10/05 14:31:24;;;;;;;;;;;24.20;44.60;;;;;;5075399;28;19909;-65
2023/10/05 14:33:50;;;;;;;;;;;24.00;45.10;;;;;;5057413;28;19908;-66
2023/10/05 14:36:18;;;;;;;;;;;23.90;46.20;;;;;;5075273;28;19908;-65
2023/10/05 14:38:44;;;;;;;;;;;23.80;46.00;;;;;;5057156;28;19920;-66
2023/10/05 14:41:11;;;;;;;;;;;23.70;46.40;;;;;;5075292;28;19916;-66
2023/10/05 14:43:44;;;;;;;;;;;23.60;46.40;;;;;;5075167;28;19904;-66
2023/10/05 14:46:10;;;;;;;;;;;23.20;48.20;;;;;;5075214;28;19908;-65
2023/10/05 14:48:40;;;;;;;;;;;23.30;48.20;;;;;;5075129;28;19912;-66
2023/10/05 14:51:10;;;;;;;;;;;23.10;50.70;;;;;;5075300;28;19908;-65
2023/10/05 14:53:38;;;;;;;;;;;22.80;51.50;;;;;;5075214;28;20277;-66
2023/10/05 14:56:05;;;;;;;;;;;22.70;50.00;;;;;;5075102;28;20373;-66